Time;durP1;ratioP1;P1;durP2;ratioP2;P2;SDS_P1;SDS_P2;PMS_P1;PMS_P2;Temp;Humidity;BMP_temperature;BMP_pressure;BME280_temperature;BME280_humidity;BME280_pressure;Samples;Min_cycle;Max_cycle;Signal;HPM_P1;HPM_P2
2022/07/28 00:01:44;;;;;;;67.50;4.17;;;18.30;1.00;;;;;;5062480;28;20164;-82
2022/07/28 00:04:09;;;;;;;68.10;3.70;;;18.30;1.00;;;;;;5080471;28;20508;-82
2022/07/28 00:06:35;;;;;;;69.63;4.13;;;18.20;1.00;;;;;;5080064;28;20171;-82
2022/07/28 00:09:01;;;;;;;67.67;4.70;;;18.20;1.00;;;;;;5080398;28;20577;-82
2022/07/28 00:11:26;;;;;;;66.87;4.10;;;18.20;1.00;;;;;;5062527;28;20172;-82
2022/07/28 00:13:52;;;;;;;71.63;5.00;;;18.30;1.00;;;;;;5080060;28;20187;-82
2022/07/28 00:16:18;;;;;;;67.77;4.37;;;18.20;1.00;;;;;;5092636;28;20188;-82
2022/07/28 00:18:44;;;;;;;69.37;3.77;;;18.20;1.00;;;;;;5062735;28;20188;-82
2022/07/28 00:21:10;;;;;;;66.67;4.20;;;18.20;1.00;;;;;;5061928;28;20164;-82
2022/07/28 00:23:36;;;;;;;67.30;4.50;;;18.20;1.00;;;;;;5079377;28;20400;-83
2022/07/28 00:26:01;;;;;;;72.73;5.00;;;18.20;1.00;;;;;;5079820;28;20893;-83
2022/07/28 00:28:27;;;;;;;66.57;4.80;;;18.20;1.00;;;;;;5079011;28;20263;-82
2022/07/28 00:30:54;;;;;;;67.07;4.70;;;18.10;1.00;;;;;;5079464;28;20160;-82
2022/07/28 00:33:20;;;;;;;70.50;4.87;;;18.10;1.00;;;;;;5078705;28;20152;-82
2022/07/28 00:35:46;;;;;;;68.67;4.83;;;18.10;1.00;;;;;;5079249;28;20394;-82
2022/07/28 00:38:12;;;;;;;71.03;5.17;;;18.20;1.00;;;;;;5061450;28;20430;-82
2022/07/28 00:43:22;;;;;;;68.87;5.37;;;18.10;1.00;;;;;;5079439;28;20160;-83
2022/07/28 00:45:47;;;;;;;68.87;5.67;;;18.00;1.00;;;;;;5060882;28;20398;-82
2022/07/28 00:48:13;;;;;;;71.83;7.90;;;18.10;1.00;;;;;;5060860;28;20449;-82
2022/07/28 00:50:39;;;;;;;68.40;6.27;;;18.00;1.10;;;;;;5079168;28;20164;-82
2022/07/28 00:53:06;;;;;;;69.50;6.67;;;18.00;2.40;;;;;;5078450;28;20164;-82
2022/07/28 00:55:32;;;;;;;67.77;7.17;;;18.00;3.00;;;;;;5060699;28;20403;-82
2022/07/28 00:57:59;;;;;;;71.40;9.70;;;18.00;3.20;;;;;;5078715;28;20446;-82
2022/07/28 01:00:25;;;;;;;70.60;7.93;;;18.00;4.30;;;;;;5078865;28;20406;-82
2022/07/28 01:02:51;;;;;;;69.30;6.30;;;17.80;3.90;;;;;;5079050;28;20512;-82
2022/07/28 01:05:17;;;;;;;71.57;4.70;;;17.70;2.40;;;;;;5078786;28;20410;-82
2022/07/28 01:08:02;;;;;;;67.27;4.27;;;17.60;1.00;;;;;;5078965;28;20422;-82
2022/07/28 01:10:45;;;;;;;66.33;4.33;;;17.70;1.10;;;;;;5060681;28;20410;-82
2022/07/28 01:13:44;;;;;;;66.67;3.50;;;17.80;1.00;;;;;;5060189;28;20402;-82
2022/07/28 01:16:10;;;;;;;67.03;4.10;;;17.80;1.00;;;;;;5059456;28;20964;-82
2022/07/28 01:18:49;;;;;;;67.80;3.60;;;17.80;1.00;;;;;;5078502;28;20468;-82
2022/07/28 01:21:24;;;;;;;74.47;3.97;;;17.70;1.00;;;;;;5060387;28;20478;-82
2022/07/28 01:24:20;;;;;;;68.63;3.47;;;17.80;1.00;;;;;;5060008;28;20473;-82
2022/07/28 01:26:53;;;;;;;67.53;4.33;;;17.90;1.00;;;;;;5060799;28;20750;-82
2022/07/28 01:29:21;;;;;;;66.47;4.23;;;17.90;1.00;;;;;;5078412;28;20424;-82
2022/07/28 01:31:53;;;;;;;66.37;4.07;;;18.00;1.00;;;;;;5077922;28;20430;-82
2022/07/28 01:34:26;;;;;;;67.10;4.60;;;18.00;1.00;;;;;;5078428;28;20386;-82
2022/07/28 01:36:56;;;;;;;67.53;4.70;;;18.00;1.00;;;;;;5060671;28;20430;-82
2022/07/28 01:39:25;;;;;;;66.37;4.77;;;17.90;1.00;;;;;;5059871;28;20513;-82
2022/07/28 01:41:53;;;;;;;67.30;4.40;;;17.90;1.00;;;;;;5078548;28;20402;-82
2022/07/28 01:44:28;;;;;;;71.07;5.57;;;17.90;1.00;;;;;;5060687;28;20460;-82
2022/07/28 01:46:58;;;;;;;66.00;4.37;;;17.90;1.00;;;;;;5079386;28;20397;-82
2022/07/28 01:49:26;;;;;;;68.07;5.13;;;17.90;1.00;;;;;;5080524;28;20767;-82
2022/07/28 01:51:54;;;;;;;68.50;5.20;;;17.90;1.00;;;;;;5079360;28;20410;-82
2022/07/28 01:54:23;;;;;;;68.87;4.80;;;17.90;1.00;;;;;;5082086;28;20398;-82
2022/07/28 01:56:51;;;;;;;73.10;6.57;;;17.80;1.00;;;;;;5064005;28;20999;-82
2022/07/28 01:59:20;;;;;;;67.87;6.37;;;17.80;1.00;;;;;;5064179;28;20445;-82
2022/07/28 02:01:47;;;;;;;67.33;6.47;;;17.80;1.10;;;;;;5064105;28;20409;-82
2022/07/28 02:04:17;;;;;;;67.47;6.10;;;17.80;2.00;;;;;;5081755;28;20462;-82
2022/07/28 02:06:44;;;;;;;67.20;6.60;;;17.70;2.30;;;;;;5081887;28;20386;-82
2022/07/28 02:09:10;;;;;;;70.30;8.20;;;17.70;3.30;;;;;;5081369;28;20438;-82
2022/07/28 02:11:39;;;;;;;68.40;9.93;;;17.60;5.30;;;;;;5063580;28;20489;-82
2022/07/28 02:14:20;;;;;;;69.90;10.60;;;17.60;5.20;;;;;;5063410;28;20413;-82
2022/07/28 02:16:50;;;;;;;68.40;10.33;;;17.60;5.70;;;;;;5046889;28;20434;-82
2022/07/28 02:19:18;;;;;;;69.03;10.70;;;17.60;6.80;;;;;;5081886;28;20425;-82
2022/07/28 02:21:46;;;;;;;71.00;11.40;;;17.60;7.40;;;;;;5081929;28;20402;-82
2022/07/28 02:24:12;;;;;;;68.80;13.30;;;17.50;7.40;;;;;;5081017;28;20398;-82
2022/07/28 02:26:58;;;;;;;69.77;14.80;;;17.50;8.30;;;;;;5080654;28;20402;-82
2022/07/28 02:29:25;;;;;;;71.90;14.07;;;17.50;8.40;;;;;;5062949;28;20513;-82
2022/07/28 02:32:05;;;;;;;71.00;16.30;;;17.50;7.70;;;;;;5063688;28;20498;-82
2022/07/28 02:34:32;;;;;;;70.90;15.50;;;17.40;9.20;;;;;;5062616;28;20428;-82
2022/07/28 02:37:01;;;;;;;70.70;13.60;;;17.40;10.30;;;;;;5062616;28;20448;-82
2022/07/28 02:39:40;;;;;;;72.50;19.17;;;17.40;10.70;;;;;;5080836;28;20421;-82
2022/07/28 02:42:13;;;;;;;72.13;19.50;;;17.40;11.20;;;;;;5081102;28;20379;-82
2022/07/28 02:44:42;;;;;;;70.97;17.57;;;17.30;11.80;;;;;;5062886;28;20410;-82
2022/07/28 02:49:37;;;;;;;76.07;22.97;;;17.40;13.90;;;;;;5153934;22;20485;-82
2022/07/28 02:52:06;;;;;;;76.80;19.30;;;17.30;14.70;;;;;;5084153;28;20759;-82
2022/07/28 02:54:34;;;;;;;72.47;22.30;;;17.30;15.60;;;;;;5086899;28;20856;-82
2022/07/28 02:57:01;;;;;;;71.10;20.30;;;17.30;16.10;;;;;;5088689;28;20517;-82
2022/07/28 02:59:27;;;;;;;72.03;21.83;;;17.30;16.10;;;;;;5087596;28;20429;-82
2022/07/28 03:01:54;;;;;;;71.27;20.87;;;17.30;17.10;;;;;;5088662;28;20428;-82
2022/07/28 03:07:07;;;;;;;72.20;22.03;;;17.20;18.80;;;;;;5088139;28;20840;-82
2022/07/28 03:09:42;;;;;;;72.90;18.73;;;17.20;18.40;;;;;;5088155;28;20448;-82
2022/07/28 03:12:12;;;;;;;72.27;21.90;;;17.10;19.40;;;;;;5088483;28;20462;-82
2022/07/28 03:14:38;;;;;;;70.60;19.47;;;17.00;21.00;;;;;;5088082;28;20394;-82
2022/07/28 03:17:04;;;;;;;70.00;15.73;;;17.00;21.00;;;;;;5088629;28;20466;-82
2022/07/28 03:19:30;;;;;;;74.77;20.13;;;17.00;21.40;;;;;;5088469;28;20425;-82
2022/07/28 03:21:56;;;;;;;71.23;19.20;;;16.90;22.80;;;;;;5087632;28;20457;-82
2022/07/28 03:24:24;;;;;;;74.03;22.30;;;16.90;23.30;;;;;;5088287;28;20398;-82
2022/07/28 03:27:01;;;;;;;71.83;20.73;;;16.90;23.60;;;;;;5088144;28;20406;-83
2022/07/28 03:29:30;;;;;;;71.50;20.50;;;16.90;23.40;;;;;;5087470;28;20418;-82
2022/07/28 03:31:57;;;;;;;73.10;18.50;;;16.90;23.80;;;;;;5088077;28;20410;-82
2022/07/28 03:34:23;;;;;;;71.20;15.20;;;16.80;24.40;;;;;;5086581;28;20416;-82
2022/07/28 03:36:55;;;;;;;70.33;18.80;;;16.70;25.80;;;;;;5087829;28;20442;-82
2022/07/28 03:39:23;;;;;;;73.20;16.77;;;16.80;25.50;;;;;;5087908;28;20425;-82
2022/07/28 03:41:51;;;;;;;71.40;17.00;;;16.70;25.90;;;;;;5088731;28;20398;-83
2022/07/28 03:44:17;;;;;;;70.93;16.60;;;16.70;26.20;;;;;;5087347;28;20437;-82
2022/07/28 03:46:46;;;;;;;73.20;18.17;;;16.70;25.80;;;;;;5087184;28;20402;-82
2022/07/28 03:49:12;;;;;;;69.90;15.43;;;16.70;26.30;;;;;;5085457;28;20487;-83
2022/07/28 03:51:38;;;;;;;71.80;17.00;;;16.60;27.80;;;;;;5087265;28;20473;-82
2022/07/28 03:54:03;;;;;;;69.60;17.23;;;16.60;27.70;;;;;;5087495;28;20905;-82
2022/07/28 03:56:29;;;;;;;70.47;17.70;;;16.70;27.30;;;;;;5087313;28;20246;-82
2022/07/28 03:58:55;;;;;;;73.20;18.60;;;16.60;27.80;;;;;;5086990;28;20183;-82
2022/07/28 04:01:21;;;;;;;73.23;17.37;;;16.50;28.60;;;;;;5086495;28;20199;-82
2022/07/28 04:03:46;;;;;;;72.07;18.73;;;16.50;29.30;;;;;;5087442;28;20403;-82
2022/07/28 04:06:13;;;;;;;70.67;17.80;;;16.50;30.50;;;;;;5085961;28;20177;-82
2022/07/28 04:08:40;;;;;;;72.20;16.70;;;16.50;30.10;;;;;;5084543;28;20270;-82
2022/07/28 04:11:06;;;;;;;71.40;17.40;;;16.60;29.30;;;;;;5086980;28;20406;-82
2022/07/28 04:13:33;;;;;;;70.50;16.93;;;16.50;30.10;;;;;;5086828;28;20402;-82
2022/07/28 04:15:59;;;;;;;69.20;15.77;;;16.50;30.60;;;;;;5086233;28;20554;-82
2022/07/28 04:18:25;;;;;;;70.97;16.33;;;16.50;31.50;;;;;;5087329;28;20498;-82
2022/07/28 04:20:50;;;;;;;69.47;15.70;;;16.50;32.10;;;;;;5086877;28;20399;-82
2022/07/28 04:23:18;;;;;;;70.30;15.50;;;16.50;32.40;;;;;;5088003;28;20633;-82
2022/07/28 04:25:44;;;;;;;72.27;15.53;;;16.50;32.60;;;;;;5086317;28;20217;-82
2022/07/28 04:28:09;;;;;;;69.50;14.77;;;16.50;33.40;;;;;;5087390;28;20422;-83
2022/07/28 04:30:35;;;;;;;67.70;11.70;;;16.40;34.60;;;;;;5088130;28;20195;-82
2022/07/28 04:33:01;;;;;;;69.73;12.60;;;16.30;36.10;;;;;;5087170;28;20194;-82
2022/07/28 04:35:30;;;;;;;68.87;13.20;;;16.40;36.00;;;;;;5086280;28;20176;-82
2022/07/28 04:37:57;;;;;;;69.47;12.40;;;16.30;36.50;;;;;;5085841;28;20225;-82
2022/07/28 04:40:24;;;;;;;68.97;11.10;;;16.30;38.60;;;;;;5086639;28;20414;-82
2022/07/28 04:42:50;;;;;;;69.00;11.10;;;16.30;38.20;;;;;;5086428;28;20432;-82
2022/07/28 04:45:19;;;;;;;68.77;9.73;;;16.40;37.30;;;;;;5088625;28;20409;-82
2022/07/28 04:47:45;;;;;;;68.10;9.83;;;16.40;39.80;;;;;;5085621;28;20440;-82
2022/07/28 04:50:14;;;;;;;68.90;11.57;;;16.60;41.70;;;;;;5087399;28;20389;-82
2022/07/28 04:52:40;;;;;;;70.50;15.60;;;17.00;40.10;;;;;;5083698;28;20217;-82
2022/07/28 04:55:07;;;;;;;72.87;18.67;;;17.20;35.60;;;;;;5086649;28;20410;-82
2022/07/28 04:57:33;;;;;;;72.00;18.70;;;17.60;29.30;;;;;;5086665;28;20449;-82
2022/07/28 04:59:59;;;;;;;70.47;18.40;;;17.60;25.60;;;;;;5086518;28;20409;-82
2022/07/28 05:02:26;;;;;;;70.77;14.90;;;17.60;25.30;;;;;;5087443;28;20401;-82
2022/07/28 05:04:52;;;;;;;69.87;15.60;;;17.50;27.10;;;;;;5086668;28;20403;-83
2022/07/28 05:07:18;;;;;;;70.10;13.70;;;17.40;27.80;;;;;;5085353;28;20948;-82
2022/07/28 05:09:44;;;;;;;67.27;10.70;;;17.40;29.50;;;;;;5086991;28;20406;-82
2022/07/28 05:12:09;;;;;;;75.47;11.63;;;17.30;33.20;;;;;;5086451;28;20447;-82
2022/07/28 05:14:35;;;;;;;68.37;9.87;;;17.20;33.10;;;;;;5086322;28;20530;-82
2022/07/28 05:17:01;;;;;;;66.77;8.50;;;17.20;34.30;;;;;;5086308;28;20198;-82
2022/07/28 05:19:26;;;;;;;66.97;8.00;;;17.10;38.60;;;;;;5086098;28;20590;-82
2022/07/28 05:21:52;;;;;;;67.20;7.30;;;17.10;41.60;;;;;;5086368;28;20216;-82
2022/07/28 05:24:18;;;;;;;72.83;6.33;;;17.20;43.50;;;;;;5085425;28;20189;-82
2022/07/28 05:26:44;;;;;;;69.03;6.57;;;17.10;45.60;;;;;;5089003;28;20160;-82
2022/07/28 05:29:10;;;;;;;65.93;7.80;;;17.10;49.30;;;;;;5091082;28;20203;-82
2022/07/28 05:31:35;;;;;;;68.60;7.77;;;17.10;52.40;;;;;;5093162;28;20897;-82
2022/07/28 05:34:01;;;;;;;66.70;8.60;;;17.20;50.20;;;;;;5092863;28;20171;-82
2022/07/28 05:36:27;;;;;;;70.27;11.10;;;17.10;53.60;;;;;;5093144;28;20677;-82
2022/07/28 05:38:52;;;;;;;69.20;9.10;;;17.10;54.30;;;;;;5092375;28;20187;-82
2022/07/28 05:41:18;;;;;;;69.23;7.50;;;17.10;55.30;;;;;;5092878;28;20577;-82
2022/07/28 05:43:47;;;;;;;66.17;7.23;;;17.20;55.90;;;;;;5092140;28;20164;-82
2022/07/28 05:46:12;;;;;;;68.23;7.93;;;17.20;57.40;;;;;;5092721;28;20163;-82
2022/07/28 05:48:38;;;;;;;70.37;8.97;;;17.20;56.50;;;;;;5091945;28;20512;-82
2022/07/28 05:51:04;;;;;;;68.77;11.83;;;17.10;58.00;;;;;;5093123;28;20168;-82
2022/07/28 05:53:29;;;;;;;68.77;10.30;;;17.20;60.10;;;;;;5091910;28;20195;-82
2022/07/28 05:55:55;;;;;;;68.27;12.40;;;17.10;60.00;;;;;;5092943;28;20170;-82
2022/07/28 05:58:22;;;;;;;67.83;8.63;;;17.20;60.90;;;;;;5092565;28;20815;-80
2022/07/28 06:00:48;;;;;;;67.67;6.60;;;17.20;59.60;;;;;;5093327;28;20250;-82
2022/07/28 06:03:13;;;;;;;66.20;6.27;;;17.30;56.30;;;;;;5091343;28;20414;-81
2022/07/28 06:05:39;;;;;;;67.03;6.70;;;17.40;53.20;;;;;;5091758;28;20471;-81
2022/07/28 06:08:05;;;;;;;67.67;6.10;;;17.40;52.80;;;;;;5091014;28;20221;-82
2022/07/28 06:13:18;;;;;;;68.47;7.87;;;17.60;49.20;;;;;;5093424;28;20230;-82
2022/07/28 06:15:47;;;;;;;69.07;9.17;;;17.70;41.60;;;;;;5093508;28;20394;-81
2022/07/28 06:18:13;;;;;;;69.30;8.80;;;17.70;38.80;;;;;;5092917;28;20449;-82
2022/07/28 06:20:39;;;;;;;68.47;8.50;;;17.80;34.70;;;;;;5093366;28;20455;-82
2022/07/28 06:23:04;;;;;;;71.50;10.43;;;17.70;31.20;;;;;;5094012;28;20171;-82
2022/07/28 06:25:30;;;;;;;72.57;15.27;;;17.80;29.60;;;;;;5092744;28;20160;-81
2022/07/28 06:28:01;;;;;;;72.93;15.00;;;17.80;28.20;;;;;;5093269;28;20207;-82
2022/07/28 06:30:27;;;;;;;71.13;15.17;;;17.80;24.30;;;;;;5090915;28;20387;-81
2022/07/28 06:32:53;;;;;;;72.93;21.47;;;17.70;25.60;;;;;;5092431;28;20398;-82
2022/07/28 06:35:20;;;;;;;74.83;18.37;;;17.70;21.80;;;;;;5092878;28;20395;-81
2022/07/28 06:37:47;;;;;;;75.70;18.13;;;17.60;20.90;;;;;;5091757;28;20442;-81
2022/07/28 06:40:14;;;;;;;72.53;15.73;;;17.60;22.70;;;;;;5090051;28;20481;-80
2022/07/28 06:42:43;;;;;;;73.47;15.37;;;17.70;23.40;;;;;;5088913;28;20406;-81
2022/07/28 06:45:10;;;;;;;74.93;17.07;;;17.70;23.90;;;;;;5088747;28;20413;-81
2022/07/28 06:47:36;;;;;;;70.60;15.43;;;17.80;22.40;;;;;;5087562;28;20431;-80
2022/07/28 06:50:02;;;;;;;73.17;17.23;;;18.00;21.00;;;;;;5082927;28;20403;-81
2022/07/28 06:52:28;;;;;;;72.63;16.60;;;18.00;21.50;;;;;;5087562;28;20164;-81
2022/07/28 06:54:54;;;;;;;72.13;21.50;;;18.00;18.70;;;;;;5088063;28;20418;-81
2022/07/28 06:57:21;;;;;;;72.00;16.90;;;18.00;16.90;;;;;;5088444;28;21011;-80
2022/07/28 06:59:49;;;;;;;81.97;19.87;;;18.00;10.70;;;;;;5088726;28;20158;-80
2022/07/28 07:02:16;;;;;;;76.70;17.87;;;17.90;14.30;;;;;;5088122;28;20436;-81
2022/07/28 07:04:42;;;;;;;75.70;18.90;;;17.90;13.30;;;;;;5086955;28;20486;-81
2022/07/28 07:07:08;;;;;;;74.90;17.90;;;18.00;15.10;;;;;;5089045;28;20398;-81
2022/07/28 07:09:35;;;;;;;72.67;17.47;;;17.90;14.70;;;;;;5087342;28;20458;-81
2022/07/28 07:12:01;;;;;;;72.37;18.27;;;18.00;14.90;;;;;;5086955;28;20410;-82
2022/07/28 07:14:26;;;;;;;70.77;16.60;;;18.00;13.60;;;;;;5088386;28;20403;-81
2022/07/28 07:16:55;;;;;;;70.10;14.57;;;18.10;10.60;;;;;;5088141;28;20442;-81
2022/07/28 07:19:21;;;;;;;77.00;18.23;;;18.10;8.90;;;;;;5085082;28;20287;-81
2022/07/28 07:21:47;;;;;;;68.50;9.73;;;18.10;9.00;;;;;;5088425;28;20411;-81
2022/07/28 07:24:13;;;;;;;71.17;13.07;;;18.10;7.70;;;;;;5087478;28;20172;-81
2022/07/28 07:26:39;;;;;;;82.40;15.87;;;18.10;6.10;;;;;;5088374;28;20460;-81
2022/07/28 07:29:06;;;;;;;72.57;21.70;;;18.10;8.20;;;;;;5087838;28;20422;-81
2022/07/28 07:31:33;;;;;;;73.40;20.40;;;18.00;10.70;;;;;;5088062;28;20164;-81
2022/07/28 07:33:59;;;;;;;71.60;16.33;;;18.00;9.90;;;;;;5086988;28;20805;-81
2022/07/28 07:36:24;;;;;;;71.87;15.90;;;18.10;8.70;;;;;;5088098;28;20445;-81
2022/07/28 07:38:50;;;;;;;72.57;16.07;;;18.10;8.70;;;;;;5087655;28;20456;-81
2022/07/28 07:41:17;;;;;;;73.43;20.37;;;18.10;8.30;;;;;;5085880;28;20167;-81
2022/07/28 07:43:44;;;;;;;73.60;12.23;;;18.20;12.00;;;;;;5085066;28;20191;-81
2022/07/28 07:46:09;;;;;;;72.30;18.27;;;18.20;2.50;;;;;;5086617;28;20437;-81
2022/07/28 07:48:35;;;;;;;71.00;13.60;;;18.10;3.30;;;;;;5084485;28;20961;-81
2022/07/28 07:51:01;;;;;;;72.90;16.87;;;18.10;1.00;;;;;;5085686;28;20251;-81
2022/07/28 07:53:26;;;;;;;73.40;22.30;;;18.10;1.00;;;;;;5085236;28;20164;-81
2022/07/28 07:55:52;;;;;;;74.87;20.27;;;18.20;5.60;;;;;;5084952;28;20164;-81
2022/07/28 07:58:18;;;;;;;73.10;16.77;;;18.30;9.90;;;;;;5087532;28;20667;-81
2022/07/28 08:00:44;;;;;;;73.10;15.80;;;18.40;7.00;;;;;;5087650;28;20614;-81
2022/07/28 08:03:09;;;;;;;70.53;10.50;;;18.50;1.00;;;;;;5087002;28;20406;-81
2022/07/28 08:05:35;;;;;;;71.77;13.20;;;18.60;1.00;;;;;;5087404;28;20167;-81
2022/07/28 08:08:01;;;;;;;68.87;6.90;;;18.60;1.00;;;;;;5087689;28;20195;-81
2022/07/28 08:10:30;;;;;;;70.43;7.70;;;18.70;1.00;;;;;;5084851;28;20565;-81
2022/07/28 08:12:56;;;;;;;69.47;4.90;;;18.70;1.00;;;;;;5083929;28;20410;-81
2022/07/28 08:15:22;;;;;;;70.67;5.67;;;18.60;1.00;;;;;;5084997;28;20962;-81
2022/07/28 08:17:47;;;;;;;68.27;7.50;;;18.70;1.00;;;;;;5086569;28;20200;-81
2022/07/28 08:20:13;;;;;;;72.40;6.80;;;18.70;1.00;;;;;;5085444;28;20167;-81
2022/07/28 08:22:49;;;;;;;67.17;5.20;;;18.80;1.00;;;;;;5083240;28;20190;-81
2022/07/28 08:25:15;;;;;;;70.83;4.30;;;18.90;1.00;;;;;;5085711;28;20171;-81
2022/07/28 08:27:41;;;;;;;67.60;5.67;;;19.00;1.00;;;;;;5085085;28;20432;-81
2022/07/28 08:30:10;;;;;;;72.63;4.87;;;19.00;1.00;;;;;;5087015;28;20422;-81
2022/07/28 08:32:36;;;;;;;68.07;3.90;;;19.00;1.00;;;;;;5083054;28;20196;-81
2022/07/28 08:35:03;;;;;;;66.97;3.60;;;19.00;1.00;;;;;;5082831;28;20886;-81
2022/07/28 08:37:28;;;;;;;68.37;6.10;;;19.10;1.00;;;;;;5086734;28;20188;-81
2022/07/28 08:39:54;;;;;;;70.57;4.03;;;19.20;1.00;;;;;;5083481;28;20413;-81
2022/07/28 08:42:37;;;;;;;72.67;3.77;;;19.30;1.00;;;;;;5084799;28;20165;-81
2022/07/28 08:45:06;;;;;;;66.97;3.30;;;19.30;1.00;;;;;;5086441;28;20140;-81
2022/07/28 08:47:34;;;;;;;68.00;3.50;;;19.30;1.00;;;;;;5085237;28;20446;-81
2022/07/28 08:50:00;;;;;;;68.57;2.90;;;19.30;1.00;;;;;;5085538;28;20422;-81
2022/07/28 08:52:31;;;;;;;67.77;2.80;;;19.30;1.00;;;;;;5085766;28;20418;-81
2022/07/28 08:55:00;;;;;;;67.10;2.97;;;19.40;1.00;;;;;;5085322;28;20492;-81
2022/07/28 08:57:32;;;;;;;69.10;3.20;;;19.50;1.00;;;;;;5086058;28;21014;-81
2022/07/28 08:59:59;;;;;;;69.43;3.23;;;19.60;1.00;;;;;;5084123;28;20489;-81
2022/07/28 09:02:25;;;;;;;71.00;2.93;;;19.70;1.00;;;;;;5081863;28;20460;-81
2022/07/28 09:04:53;;;;;;;67.37;2.83;;;19.80;1.00;;;;;;5085085;28;20456;-81
2022/07/28 09:07:19;;;;;;;65.83;2.83;;;20.00;1.00;;;;;;5083565;28;20441;-81
2022/07/28 09:09:48;;;;;;;67.40;2.93;;;20.10;1.00;;;;;;5086708;28;20395;-81
2022/07/28 09:12:16;;;;;;;68.73;3.50;;;20.20;1.00;;;;;;5086106;28;20725;-81
2022/07/28 09:14:43;;;;;;;66.17;2.57;;;20.20;1.00;;;;;;5084821;28;20415;-81
2022/07/28 09:17:09;;;;;;;67.10;3.20;;;20.30;1.00;;;;;;5083438;28;20437;-81
2022/07/28 09:19:36;;;;;;;72.63;3.60;;;20.40;1.00;;;;;;5081876;28;20434;-81
2022/07/28 09:22:03;;;;;;;68.90;2.57;;;20.50;1.00;;;;;;5084940;28;20456;-81
2022/07/28 09:24:40;;;;;;;69.80;3.53;;;20.60;1.00;;;;;;5082121;28;20403;-81
2022/07/28 09:27:11;;;;;;;67.47;3.00;;;20.70;1.00;;;;;;5081659;28;20455;-81
2022/07/28 09:29:39;;;;;;;69.60;2.67;;;20.80;1.00;;;;;;5082752;28;20389;-81
2022/07/28 09:32:06;;;;;;;66.40;2.93;;;20.80;1.00;;;;;;5082632;28;20944;-81
2022/07/28 09:34:47;;;;;;;65.87;2.90;;;20.90;1.00;;;;;;5082574;28;20412;-80
2022/07/28 09:37:20;;;;;;;66.37;2.73;;;20.90;1.00;;;;;;5084921;28;20456;-81
2022/07/28 09:39:48;;;;;;;66.50;3.43;;;20.90;1.00;;;;;;5085521;28;20404;-81
2022/07/28 09:42:17;;;;;;;66.93;2.70;;;21.10;1.00;;;;;;5085494;28;20724;-81
2022/07/28 09:44:42;;;;;;;65.00;2.67;;;21.30;1.00;;;;;;5084732;28;20432;-81
2022/07/28 09:47:26;;;;;;;66.97;2.80;;;21.30;1.00;;;;;;5077378;28;20788;-81
2022/07/28 09:49:53;;;;;;;68.07;2.60;;;21.50;1.00;;;;;;5084172;28;20154;-81
2022/07/28 09:52:30;;;;;;;67.87;2.70;;;21.60;1.00;;;;;;5085280;28;20395;-81
2022/07/28 09:55:10;;;;;;;66.77;2.67;;;21.80;1.00;;;;;;5083965;28;20529;-81
2022/07/28 09:57:38;;;;;;;65.93;2.90;;;21.90;1.00;;;;;;5080695;28;20463;-80
2022/07/28 10:00:10;;;;;;;68.83;2.40;;;21.90;1.00;;;;;;5081080;28;20405;-81
2022/07/28 10:02:37;;;;;;;68.00;2.67;;;22.00;1.00;;;;;;5082169;28;20917;-81
2022/07/28 10:05:03;;;;;;;65.97;2.20;;;22.20;1.00;;;;;;5084793;28;20456;-81
2022/07/28 10:07:30;;;;;;;66.10;2.40;;;22.30;1.00;;;;;;5080288;28;20421;-81
2022/07/28 10:09:56;;;;;;;66.90;2.60;;;22.50;1.00;;;;;;5084754;28;20770;-81
2022/07/28 10:12:25;;;;;;;69.07;2.70;;;22.60;1.00;;;;;;5082729;28;20395;-81
2022/07/28 10:14:56;;;;;;;67.60;2.40;;;22.80;1.00;;;;;;5088324;28;20753;-81
2022/07/28 10:17:32;;;;;;;68.57;2.43;;;23.00;1.00;;;;;;5084519;28;20483;-81
2022/07/28 10:20:05;;;;;;;68.67;2.90;;;23.10;1.00;;;;;;5088319;28;20386;-81
2022/07/28 10:22:37;;;;;;;67.50;2.90;;;23.20;1.00;;;;;;5085394;28;20375;-81
2022/07/28 10:25:13;;;;;;;66.37;2.40;;;23.40;1.00;;;;;;5087278;28;20468;-81
2022/07/28 10:27:41;;;;;;;68.50;2.97;;;23.50;1.00;;;;;;5087241;28;20433;-81
2022/07/28 10:30:07;;;;;;;70.57;2.60;;;23.70;1.00;;;;;;5084781;28;20818;-81
2022/07/28 10:32:41;;;;;;;68.93;2.90;;;23.80;1.00;;;;;;5087800;28;20405;-81
2022/07/28 10:35:13;;;;;;;67.70;2.70;;;24.00;1.00;;;;;;5088334;28;20418;-82
2022/07/28 10:38:02;;;;;;;65.60;2.10;;;24.30;1.00;;;;;;5087480;28;20450;-81
2022/07/28 10:40:37;;;;;;;66.03;2.27;;;24.20;1.00;;;;;;5085326;28;20399;-81
2022/07/28 10:43:07;;;;;;;67.53;2.27;;;24.00;1.00;;;;;;5084447;28;20379;-81
2022/07/28 10:45:34;;;;;;;65.50;2.00;;;24.30;1.00;;;;;;5082830;28;20394;-81
2022/07/28 10:48:01;;;;;;;65.17;1.80;;;24.70;1.00;;;;;;5082525;28;20433;-81
2022/07/28 10:50:27;;;;;;;69.53;2.90;;;24.90;1.00;;;;;;5087626;28;20436;-81
2022/07/28 10:52:53;;;;;;;67.40;2.33;;;24.90;1.00;;;;;;5088019;28;20403;-81
2022/07/28 10:55:47;;;;;;;66.70;2.30;;;25.00;1.00;;;;;;5088008;28;20406;-81
2022/07/28 10:58:34;;;;;;;68.50;2.13;;;25.20;1.00;;;;;;5088462;28;20786;-81
2022/07/28 11:00:59;;;;;;;67.70;2.70;;;25.20;1.00;;;;;;5087324;28;20380;-81
2022/07/28 11:03:46;;;;;;;65.77;2.10;;;25.40;1.00;;;;;;5085018;28;20973;-81
2022/07/28 11:06:23;;;;;;;66.20;2.17;;;25.80;1.00;;;;;;5087094;28;20219;-81
2022/07/28 11:08:51;;;;;;;68.83;2.80;;;26.10;1.00;;;;;;5088085;28;20416;-82
2022/07/28 11:11:49;;;;;;;68.10;2.40;;;26.10;1.00;;;;;;5087428;28;20398;-81
2022/07/28 11:14:21;;;;;;;66.70;2.10;;;25.70;1.00;;;;;;5086447;28;20401;-81
2022/07/28 11:16:48;;;;;;;68.10;2.20;;;25.80;1.00;;;;;;5083178;28;20494;-81
2022/07/28 11:19:15;;;;;;;66.90;2.30;;;25.40;1.00;;;;;;5087639;28;20428;-81
2022/07/28 11:22:20;;;;;;;66.57;2.23;;;25.50;1.00;;;;;;5087356;28;20402;-81
2022/07/28 11:25:04;;;;;;;65.93;2.03;;;26.00;1.00;;;;;;5087045;28;20377;-81
2022/07/28 11:27:44;;;;;;;68.70;2.20;;;26.20;1.00;;;;;;5085844;28;20393;-82
2022/07/28 11:30:17;;;;;;;68.50;2.20;;;26.50;1.00;;;;;;5085734;28;20408;-81
2022/07/28 11:32:52;;;;;;;69.90;4.90;;;26.60;1.00;;;;;;5086846;28;20470;-81
2022/07/28 11:35:21;;;;;;;66.90;2.43;;;26.50;1.00;;;;;;5087873;28;20397;-81
2022/07/28 11:37:59;;;;;;;67.97;3.10;;;26.10;1.00;;;;;;5086048;28;20449;-82
2022/07/28 11:40:29;;;;;;;68.60;2.40;;;25.70;1.00;;;;;;5083256;28;20416;-81
2022/07/28 11:43:20;;;;;;;67.37;2.90;;;25.80;1.00;;;;;;5086688;28;20402;-81
2022/07/28 11:46:07;;;;;;;68.10;2.63;;;25.80;1.00;;;;;;5086415;28;20396;-81
2022/07/28 11:48:36;;;;;;;66.20;2.30;;;25.80;1.00;;;;;;5085964;28;20491;-81
2022/07/28 11:51:01;;;;;;;65.60;2.17;;;25.70;1.00;;;;;;5084469;28;20488;-81
2022/07/28 11:53:47;;;;;;;66.77;2.27;;;26.00;1.00;;;;;;5086207;28;20408;-81
2022/07/28 11:56:22;;;;;;;66.40;1.90;;;26.50;1.00;;;;;;5082232;28;20294;-81
2022/07/28 11:58:56;;;;;;;66.30;2.10;;;26.60;1.00;;;;;;5085502;28;20425;-81
2022/07/28 12:01:22;;;;;;;70.97;2.07;;;26.60;1.00;;;;;;5086017;28;20474;-81
2022/07/28 12:03:50;;;;;;;68.10;2.30;;;26.40;1.00;;;;;;5082225;28;20426;-81
2022/07/28 12:06:17;;;;;;;67.60;2.33;;;26.40;1.00;;;;;;5083631;28;20164;-81
2022/07/28 12:08:53;;;;;;;67.97;2.20;;;26.60;1.00;;;;;;5081377;28;20454;-81
2022/07/28 12:11:19;;;;;;;71.00;2.10;;;26.60;1.00;;;;;;5085348;28;20459;-82
2022/07/28 12:13:46;;;;;;;67.47;2.00;;;26.80;1.00;;;;;;5082260;28;20460;-81
2022/07/28 12:16:12;;;;;;;68.07;2.40;;;26.90;1.00;;;;;;5087077;28;20489;-81
2022/07/28 12:18:38;;;;;;;66.80;1.97;;;27.00;1.00;;;;;;5083764;28;20486;-81
2022/07/28 12:21:04;;;;;;;68.10;2.33;;;27.00;1.00;;;;;;5086139;28;20429;-81
2022/07/28 12:23:33;;;;;;;69.00;3.03;;;27.10;1.00;;;;;;5080602;28;20159;-81
2022/07/28 12:26:03;;;;;;;68.27;2.20;;;27.20;1.00;;;;;;5085920;28;20473;-82
2022/07/28 12:28:31;;;;;;;66.37;2.10;;;27.40;1.00;;;;;;5081928;28;20445;-82
2022/07/28 12:31:17;;;;;;;67.67;2.30;;;27.30;1.00;;;;;;5085833;28;20533;-82
2022/07/28 12:33:43;;;;;;;66.30;2.10;;;27.10;1.00;;;;;;5084890;28;20417;-82
2022/07/28 12:36:09;;;;;;;66.40;2.00;;;26.70;1.00;;;;;;5080277;28;20406;-81
2022/07/28 12:38:35;;;;;;;67.27;2.20;;;26.80;1.00;;;;;;5086878;28;20191;-82
2022/07/28 12:41:12;;;;;;;67.27;2.13;;;26.80;1.00;;;;;;5083581;28;20426;-82
2022/07/28 12:43:37;;;;;;;67.57;2.27;;;26.80;1.00;;;;;;5082926;28;20446;-81
2022/07/28 12:46:03;;;;;;;67.60;2.30;;;26.70;1.00;;;;;;5086703;28;20418;-81
2022/07/28 12:48:29;;;;;;;66.40;2.20;;;26.40;1.00;;;;;;5083721;28;20199;-81
2022/07/28 12:50:55;;;;;;;65.53;1.97;;;26.60;1.00;;;;;;5084104;28;20190;-82
2022/07/28 12:53:22;;;;;;;66.63;2.10;;;26.70;1.00;;;;;;5085510;28;20402;-82
2022/07/28 12:55:47;;;;;;;65.57;1.93;;;26.90;1.00;;;;;;5084111;28;20231;-81
2022/07/28 12:58:26;;;;;;;66.97;2.00;;;26.70;1.00;;;;;;5085273;28;20818;-82
2022/07/28 13:00:52;;;;;;;64.97;1.67;;;26.70;1.00;;;;;;5082129;28;20171;-81